sensor_id;sensor_type;location;lat;lon;timestamp;temperature;humidity
65836;SHT30;52595;51.608;7.216;2024-03-22T00:01:44;10.15;94.00
65836;SHT30;52595;51.608;7.216;2024-03-22T00:04:10;10.09;94.21
65836;SHT30;52595;51.608;7.216;2024-03-22T00:06:36;10.08;94.40
65836;SHT30;52595;51.608;7.216;2024-03-22T00:09:01;10.07;94.43
65836;SHT30;52595;51.608;7.216;2024-03-22T00:11:27;10.09;94.49
65836;SHT30;52595;51.608;7.216;2024-03-22T00:13:52;10.09;94.57
65836;SHT30;52595;51.608;7.216;2024-03-22T00:16:17;10.14;94.49
65836;SHT30;52595;51.608;7.216;2024-03-22T00:18:43;10.18;94.42
65836;SHT30;52595;51.608;7.216;2024-03-22T00:21:08;10.21;94.34
65836;SHT30;52595;51.608;7.216;2024-03-22T00:23:34;10.25;94.25
65836;SHT30;52595;51.608;7.216;2024-03-22T00:25:59;10.19;94.46
65836;SHT30;52595;51.608;7.216;2024-03-22T00:28:24;10.32;94.25
65836;SHT30;52595;51.608;7.216;2024-03-22T00:30:50;10.32;94.20
65836;SHT30;52595;51.608;7.216;2024-03-22T00:33:15;10.34;94.23
65836;SHT30;52595;51.608;7.216;2024-03-22T00:35:41;10.39;94.09
65836;SHT30;52595;51.608;7.216;2024-03-22T00:38:07;10.41;94.03
65836;SHT30;52595;51.608;7.216;2024-03-22T00:40:33;10.42;94.10
65836;SHT30;52595;51.608;7.216;2024-03-22T00:42:58;10.46;94.11
65836;SHT30;52595;51.608;7.216;2024-03-22T00:45:24;10.49;94.08
65836;SHT30;52595;51.608;7.216;2024-03-22T00:47:49;10.52;93.98
65836;SHT30;52595;51.608;7.216;2024-03-22T00:50:15;10.49;93.96
65836;SHT30;52595;51.608;7.216;2024-03-22T00:52:40;10.53;93.96
65836;SHT30;52595;51.608;7.216;2024-03-22T00:55:07;10.56;93.93
65836;SHT30;52595;51.608;7.216;2024-03-22T00:57:32;10.58;93.98
65836;SHT30;52595;51.608;7.216;2024-03-22T00:59:58;10.55;94.00
65836;SHT30;52595;51.608;7.216;2024-03-22T01:02:23;10.56;93.85
65836;SHT30;52595;51.608;7.216;2024-03-22T01:04:48;10.52;94.19
65836;SHT30;52595;51.608;7.216;2024-03-22T01:07:14;10.51;94.11
65836;SHT30;52595;51.608;7.216;2024-03-22T01:09:39;10.52;94.14
65836;SHT30;52595;51.608;7.216;2024-03-22T01:12:05;10.52;94.16
65836;SHT30;52595;51.608;7.216;2024-03-22T01:14:31;10.53;94.11
65836;SHT30;52595;51.608;7.216;2024-03-22T01:16:56;10.58;94.24
65836;SHT30;52595;51.608;7.216;2024-03-22T01:19:22;10.62;94.17
65836;SHT30;52595;51.608;7.216;2024-03-22T01:21:48;10.63;94.14
65836;SHT30;52595;51.608;7.216;2024-03-22T01:24:14;10.65;94.27
65836;SHT30;52595;51.608;7.216;2024-03-22T01:26:39;10.65;94.18
65836;SHT30;52595;51.608;7.216;2024-03-22T01:29:05;10.66;94.29
65836;SHT30;52595;51.608;7.216;2024-03-22T01:31:30;10.68;94.38
65836;SHT30;52595;51.608;7.216;2024-03-22T01:33:55;10.73;94.29
65836;SHT30;52595;51.608;7.216;2024-03-22T01:36:21;10.75;94.42
65836;SHT30;52595;51.608;7.216;2024-03-22T01:38:46;10.77;94.45
65836;SHT30;52595;51.608;7.216;2024-03-22T01:41:11;10.79;94.39
65836;SHT30;52595;51.608;7.216;2024-03-22T01:43:37;10.88;94.27
65836;SHT30;52595;51.608;7.216;2024-03-22T01:46:02;10.89;94.34
65836;SHT30;52595;51.608;7.216;2024-03-22T01:48:29;10.88;94.31
65836;SHT30;52595;51.608;7.216;2024-03-22T01:50:54;10.92;94.24
65836;SHT30;52595;51.608;7.216;2024-03-22T01:53:20;10.90;94.25
65836;SHT30;52595;51.608;7.216;2024-03-22T01:55:47;10.95;94.20
65836;SHT30;52595;51.608;7.216;2024-03-22T01:58:12;10.99;94.07
65836;SHT30;52595;51.608;7.216;2024-03-22T02:00:38;11.02;94.00
65836;SHT30;52595;51.608;7.216;2024-03-22T02:03:04;11.02;94.25
65836;SHT30;52595;51.608;7.216;2024-03-22T02:05:29;11.06;93.93
65836;SHT30;52595;51.608;7.216;2024-03-22T02:07:54;11.09;93.94
65836;SHT30;52595;51.608;7.216;2024-03-22T02:10:20;11.10;93.98
65836;SHT30;52595;51.608;7.216;2024-03-22T02:12:46;11.06;94.12
65836;SHT30;52595;51.608;7.216;2024-03-22T02:15:12;11.09;94.10
65836;SHT30;52595;51.608;7.216;2024-03-22T02:17:37;11.14;93.91
65836;SHT30;52595;51.608;7.216;2024-03-22T02:20:03;11.14;93.98
65836;SHT30;52595;51.608;7.216;2024-03-22T02:22:31;11.17;93.94
65836;SHT30;52595;51.608;7.216;2024-03-22T02:24:56;11.16;94.11
65836;SHT30;52595;51.608;7.216;2024-03-22T02:27:22;11.24;93.93
65836;SHT30;52595;51.608;7.216;2024-03-22T02:29:47;11.24;93.81
65836;SHT30;52595;51.608;7.216;2024-03-22T02:32:13;11.27;93.79
65836;SHT30;52595;51.608;7.216;2024-03-22T02:34:38;11.27;93.97
65836;SHT30;52595;51.608;7.216;2024-03-22T02:37:04;11.26;93.98
65836;SHT30;52595;51.608;7.216;2024-03-22T02:39:30;11.30;93.95
65836;SHT30;52595;51.608;7.216;2024-03-22T02:41:55;11.30;93.95
65836;SHT30;52595;51.608;7.216;2024-03-22T02:44:21;11.31;94.04
65836;SHT30;52595;51.608;7.216;2024-03-22T02:46:47;11.43;93.83
65836;SHT30;52595;51.608;7.216;2024-03-22T02:49:12;11.40;93.93
65836;SHT30;52595;51.608;7.216;2024-03-22T02:51:38;11.41;93.93
65836;SHT30;52595;51.608;7.216;2024-03-22T02:54:05;11.37;94.07
65836;SHT30;52595;51.608;7.216;2024-03-22T02:56:30;11.43;93.97
65836;SHT30;52595;51.608;7.216;2024-03-22T02:58:56;11.40;94.08
65836;SHT30;52595;51.608;7.216;2024-03-22T03:01:21;11.37;94.24
65836;SHT30;52595;51.608;7.216;2024-03-22T03:03:47;11.38;94.21
65836;SHT30;52595;51.608;7.216;2024-03-22T03:06:12;11.40;94.15
65836;SHT30;52595;51.608;7.216;2024-03-22T03:08:42;11.30;94.57
65836;SHT30;52595;51.608;7.216;2024-03-22T03:11:07;11.36;94.52
65836;SHT30;52595;51.608;7.216;2024-03-22T03:13:33;11.31;94.57
65836;SHT30;52595;51.608;7.216;2024-03-22T03:15:58;11.37;94.57
65836;SHT30;52595;51.608;7.216;2024-03-22T03:18:24;11.34;94.70
65836;SHT30;52595;51.608;7.216;2024-03-22T03:20:49;11.31;94.78
65836;SHT30;52595;51.608;7.216;2024-03-22T03:23:15;11.27;94.89
65836;SHT30;52595;51.608;7.216;2024-03-22T03:25:40;11.30;94.87
65836;SHT30;52595;51.608;7.216;2024-03-22T03:28:06;11.33;94.81
65836;SHT30;52595;51.608;7.216;2024-03-22T03:30:34;11.31;94.85
65836;SHT30;52595;51.608;7.216;2024-03-22T03:33:00;11.34;94.84
65836;SHT30;52595;51.608;7.216;2024-03-22T03:35:25;11.36;94.70
65836;SHT30;52595;51.608;7.216;2024-03-22T03:37:52;11.28;94.94
65836;SHT30;52595;51.608;7.216;2024-03-22T03:40:17;11.24;95.09
65836;SHT30;52595;51.608;7.216;2024-03-22T03:42:43;11.20;95.26
65836;SHT30;52595;51.608;7.216;2024-03-22T03:45:08;11.30;95.01
65836;SHT30;52595;51.608;7.216;2024-03-22T03:47:34;11.30;94.92
65836;SHT30;52595;51.608;7.216;2024-03-22T03:49:59;11.31;94.93
65836;SHT30;52595;51.608;7.216;2024-03-22T03:52:25;11.31;94.84
65836;SHT30;52595;51.608;7.216;2024-03-22T03:54:50;11.30;94.97
65836;SHT30;52595;51.608;7.216;2024-03-22T03:57:16;11.27;94.89
65836;SHT30;52595;51.608;7.216;2024-03-22T03:59:41;11.23;95.10
65836;SHT30;52595;51.608;7.216;2024-03-22T04:02:07;11.33;94.77
65836;SHT30;52595;51.608;7.216;2024-03-22T04:04:33;11.33;94.74
65836;SHT30;52595;51.608;7.216;2024-03-22T04:06:58;11.31;94.88
65836;SHT30;52595;51.608;7.216;2024-03-22T04:09:23;11.26;95.16
65836;SHT30;52595;51.608;7.216;2024-03-22T04:11:49;11.30;95.03
65836;SHT30;52595;51.608;7.216;2024-03-22T04:14:14;11.28;95.06
65836;SHT30;52595;51.608;7.216;2024-03-22T04:16:40;11.27;95.13
65836;SHT30;52595;51.608;7.216;2024-03-22T04:19:05;11.27;95.05
65836;SHT30;52595;51.608;7.216;2024-03-22T04:21:31;11.31;95.00
65836;SHT30;52595;51.608;7.216;2024-03-22T04:23:57;11.38;94.68
65836;SHT30;52595;51.608;7.216;2024-03-22T04:26:22;11.34;94.77
65836;SHT30;52595;51.608;7.216;2024-03-22T04:28:48;11.37;94.71
65836;SHT30;52595;51.608;7.216;2024-03-22T04:31:14;11.36;94.74
65836;SHT30;52595;51.608;7.216;2024-03-22T04:33:41;11.40;94.55
65836;SHT30;52595;51.608;7.216;2024-03-22T04:36:06;11.40;94.55
65836;SHT30;52595;51.608;7.216;2024-03-22T04:38:34;11.40;94.57
65836;SHT30;52595;51.608;7.216;2024-03-22T04:41:00;11.40;94.53
65836;SHT30;52595;51.608;7.216;2024-03-22T04:43:28;11.38;94.48
65836;SHT30;52595;51.608;7.216;2024-03-22T04:45:53;11.43;94.25
65836;SHT30;52595;51.608;7.216;2024-03-22T04:48:21;11.57;93.68
65836;SHT30;52595;51.608;7.216;2024-03-22T04:50:48;11.48;93.80
65836;SHT30;52595;51.608;7.216;2024-03-22T04:53:16;11.55;93.46
65836;SHT30;52595;51.608;7.216;2024-03-22T04:55:45;11.53;93.48
65836;SHT30;52595;51.608;7.216;2024-03-22T04:58:16;11.51;93.51
65836;SHT30;52595;51.608;7.216;2024-03-22T05:00:42;11.48;93.49
65836;SHT30;52595;51.608;7.216;2024-03-22T05:03:08;11.48;93.40
65836;SHT30;52595;51.608;7.216;2024-03-22T05:05:34;11.50;93.40
65836;SHT30;52595;51.608;7.216;2024-03-22T05:07:59;11.45;93.35
65836;SHT30;52595;51.608;7.216;2024-03-22T05:10:25;11.48;92.95
65836;SHT30;52595;51.608;7.216;2024-03-22T05:12:50;11.48;93.14
65836;SHT30;52595;51.608;7.216;2024-03-22T05:15:16;11.48;93.03
65836;SHT30;52595;51.608;7.216;2024-03-22T05:17:41;11.50;92.91
65836;SHT30;52595;51.608;7.216;2024-03-22T05:20:08;11.45;93.13
65836;SHT30;52595;51.608;7.216;2024-03-22T05:22:37;11.45;93.09
65836;SHT30;52595;51.608;7.216;2024-03-22T05:25:03;11.54;92.79
65836;SHT30;52595;51.608;7.216;2024-03-22T05:27:30;11.51;92.84
65836;SHT30;52595;51.608;7.216;2024-03-22T05:29:55;11.57;92.69
65836;SHT30;52595;51.608;7.216;2024-03-22T05:32:21;11.55;92.73
65836;SHT30;52595;51.608;7.216;2024-03-22T05:34:46;11.51;92.75
65836;SHT30;52595;51.608;7.216;2024-03-22T05:37:11;11.50;92.88
65836;SHT30;52595;51.608;7.216;2024-03-22T05:39:37;11.51;92.85
65836;SHT30;52595;51.608;7.216;2024-03-22T05:42:03;11.50;92.73
65836;SHT30;52595;51.608;7.216;2024-03-22T05:44:28;11.50;92.83
65836;SHT30;52595;51.608;7.216;2024-03-22T05:46:54;11.47;92.79
65836;SHT30;52595;51.608;7.216;2024-03-22T05:49:19;11.47;92.83
65836;SHT30;52595;51.608;7.216;2024-03-22T05:51:45;11.47;92.76
65836;SHT30;52595;51.608;7.216;2024-03-22T05:54:10;11.55;92.53
65836;SHT30;52595;51.608;7.216;2024-03-22T05:56:36;11.53;92.51
65836;SHT30;52595;51.608;7.216;2024-03-22T05:59:01;11.51;92.60
65836;SHT30;52595;51.608;7.216;2024-03-22T06:01:27;11.55;92.42
65836;SHT30;52595;51.608;7.216;2024-03-22T06:03:53;11.57;92.29
65836;SHT30;52595;51.608;7.216;2024-03-22T06:06:18;11.60;92.16
65836;SHT30;52595;51.608;7.216;2024-03-22T06:08:43;11.61;92.22
65836;SHT30;52595;51.608;7.216;2024-03-22T06:11:10;11.64;92.05
65836;SHT30;52595;51.608;7.216;2024-03-22T06:13:36;11.65;92.16
65836;SHT30;52595;51.608;7.216;2024-03-22T06:16:02;11.63;91.95
65836;SHT30;52595;51.608;7.216;2024-03-22T06:18:27;11.64;92.08
65836;SHT30;52595;51.608;7.216;2024-03-22T06:20:53;11.68;91.97
65836;SHT30;52595;51.608;7.216;2024-03-22T06:23:23;11.65;91.86
65836;SHT30;52595;51.608;7.216;2024-03-22T06:25:55;11.71;91.53
65836;SHT30;52595;51.608;7.216;2024-03-22T06:28:21;11.73;91.50
65836;SHT30;52595;51.608;7.216;2024-03-22T06:30:47;11.75;91.26
65836;SHT30;52595;51.608;7.216;2024-03-22T06:33:12;11.78;91.22
65836;SHT30;52595;51.608;7.216;2024-03-22T06:35:38;11.81;91.12
65836;SHT30;52595;51.608;7.216;2024-03-22T06:38:04;11.84;91.06
65836;SHT30;52595;51.608;7.216;2024-03-22T06:40:30;11.88;90.87
65836;SHT30;52595;51.608;7.216;2024-03-22T06:42:56;11.84;90.93
65836;SHT30;52595;51.608;7.216;2024-03-22T06:45:21;11.88;90.90
65836;SHT30;52595;51.608;7.216;2024-03-22T06:47:47;11.89;90.81
65836;SHT30;52595;51.608;7.216;2024-03-22T06:50:13;11.92;90.57
65836;SHT30;52595;51.608;7.216;2024-03-22T06:52:38;11.95;90.48
65836;SHT30;52595;51.608;7.216;2024-03-22T06:55:04;11.98;90.41
65836;SHT30;52595;51.608;7.216;2024-03-22T06:57:30;12.05;90.18
65836;SHT30;52595;51.608;7.216;2024-03-22T06:59:55;11.99;90.15
65836;SHT30;52595;51.608;7.216;2024-03-22T07:02:21;12.02;90.16
65836;SHT30;52595;51.608;7.216;2024-03-22T07:04:46;12.08;90.04
65836;SHT30;52595;51.608;7.216;2024-03-22T07:07:12;12.15;89.91
65836;SHT30;52595;51.608;7.216;2024-03-22T07:09:37;12.21;89.72
65836;SHT30;52595;51.608;7.216;2024-03-22T07:12:03;12.28;89.54
65836;SHT30;52595;51.608;7.216;2024-03-22T07:14:29;12.29;89.45
65836;SHT30;52595;51.608;7.216;2024-03-22T07:16:54;12.38;89.27
65836;SHT30;52595;51.608;7.216;2024-03-22T07:19:20;12.40;89.08
65836;SHT30;52595;51.608;7.216;2024-03-22T07:21:47;12.48;88.78
65836;SHT30;52595;51.608;7.216;2024-03-22T07:24:12;12.52;88.94
65836;SHT30;52595;51.608;7.216;2024-03-22T07:26:38;12.52;88.71
65836;SHT30;52595;51.608;7.216;2024-03-22T07:29:04;12.53;88.75
65836;SHT30;52595;51.608;7.216;2024-03-22T07:31:29;12.64;88.52
65836;SHT30;52595;51.608;7.216;2024-03-22T07:33:55;12.72;88.35
65836;SHT30;52595;51.608;7.216;2024-03-22T07:36:21;12.57;88.08
65836;SHT30;52595;51.608;7.216;2024-03-22T07:38:47;12.72;88.34
65836;SHT30;52595;51.608;7.216;2024-03-22T07:41:14;12.70;87.46
65836;SHT30;52595;51.608;7.216;2024-03-22T07:43:40;12.76;87.44
65836;SHT30;52595;51.608;7.216;2024-03-22T07:46:06;12.76;87.37
65836;SHT30;52595;51.608;7.216;2024-03-22T07:48:31;12.79;86.65
65836;SHT30;52595;51.608;7.216;2024-03-22T07:51:00;12.84;86.37
65836;SHT30;52595;51.608;7.216;2024-03-22T07:53:26;12.94;86.09
65836;SHT30;52595;51.608;7.216;2024-03-22T07:55:52;12.92;85.18
65836;SHT30;52595;51.608;7.216;2024-03-22T07:58:18;12.89;84.78
65836;SHT30;52595;51.608;7.216;2024-03-22T08:00:44;12.89;85.02
65836;SHT30;52595;51.608;7.216;2024-03-22T08:03:15;13.02;83.93
65836;SHT30;52595;51.608;7.216;2024-03-22T08:05:40;13.04;83.83
65836;SHT30;52595;51.608;7.216;2024-03-22T08:08:06;12.99;83.64
65836;SHT30;52595;51.608;7.216;2024-03-22T08:10:31;13.17;83.43
65836;SHT30;52595;51.608;7.216;2024-03-22T08:12:57;13.18;82.74
65836;SHT30;52595;51.608;7.216;2024-03-22T08:15:23;13.20;82.13
65836;SHT30;52595;51.608;7.216;2024-03-22T08:17:48;13.07;81.74
65836;SHT30;52595;51.608;7.216;2024-03-22T08:20:14;13.18;81.89
65836;SHT30;52595;51.608;7.216;2024-03-22T08:22:39;13.21;81.33
65836;SHT30;52595;51.608;7.216;2024-03-22T08:25:05;13.06;81.23
65836;SHT30;52595;51.608;7.216;2024-03-22T08:27:33;13.17;81.11
65836;SHT30;52595;51.608;7.216;2024-03-22T08:29:58;13.07;80.52
65836;SHT30;52595;51.608;7.216;2024-03-22T08:32:24;13.06;81.25
65836;SHT30;52595;51.608;7.216;2024-03-22T08:34:50;13.15;81.08
65836;SHT30;52595;51.608;7.216;2024-03-22T08:37:15;13.28;80.61
65836;SHT30;52595;51.608;7.216;2024-03-22T08:39:40;13.44;80.49
65836;SHT30;52595;51.608;7.216;2024-03-22T08:42:06;13.57;80.24
65836;SHT30;52595;51.608;7.216;2024-03-22T08:44:32;13.51;80.50
65836;SHT30;52595;51.608;7.216;2024-03-22T08:46:57;13.55;80.18
65836;SHT30;52595;51.608;7.216;2024-03-22T08:49:23;13.54;79.95
65836;SHT30;52595;51.608;7.216;2024-03-22T08:51:49;13.47;79.80
65836;SHT30;52595;51.608;7.216;2024-03-22T08:54:15;13.47;79.73
65836;SHT30;52595;51.608;7.216;2024-03-22T08:56:40;13.53;79.74
65836;SHT30;52595;51.608;7.216;2024-03-22T08:59:06;13.71;79.54
65836;SHT30;52595;51.608;7.216;2024-03-22T09:01:32;13.71;78.79
65836;SHT30;52595;51.608;7.216;2024-03-22T09:03:58;13.69;78.98
65836;SHT30;52595;51.608;7.216;2024-03-22T09:06:23;13.81;78.63
65836;SHT30;52595;51.608;7.216;2024-03-22T09:08:49;13.68;78.99
65836;SHT30;52595;51.608;7.216;2024-03-22T09:11:14;13.64;78.81
65836;SHT30;52595;51.608;7.216;2024-03-22T09:13:39;13.55;79.19
65836;SHT30;52595;51.608;7.216;2024-03-22T09:16:05;13.55;79.53
65836;SHT30;52595;51.608;7.216;2024-03-22T09:18:30;13.45;79.54
65836;SHT30;52595;51.608;7.216;2024-03-22T09:20:56;13.71;79.12
65836;SHT30;52595;51.608;7.216;2024-03-22T09:23:22;13.53;79.50
65836;SHT30;52595;51.608;7.216;2024-03-22T09:25:47;13.51;79.85
65836;SHT30;52595;51.608;7.216;2024-03-22T09:28:13;13.65;79.53
65836;SHT30;52595;51.608;7.216;2024-03-22T09:30:42;13.86;79.44
65836;SHT30;52595;51.608;7.216;2024-03-22T09:33:08;13.99;79.22
65836;SHT30;52595;51.608;7.216;2024-03-22T09:35:34;13.99;78.64
65836;SHT30;52595;51.608;7.216;2024-03-22T09:38:00;14.02;79.44
65836;SHT30;52595;51.608;7.216;2024-03-22T09:40:26;13.94;79.32
65836;SHT30;52595;51.608;7.216;2024-03-22T09:42:53;13.95;78.99
65836;SHT30;52595;51.608;7.216;2024-03-22T09:45:18;14.19;78.47
65836;SHT30;52595;51.608;7.216;2024-03-22T09:47:46;13.94;78.45
65836;SHT30;52595;51.608;7.216;2024-03-22T09:50:13;13.75;79.02
65836;SHT30;52595;51.608;7.216;2024-03-22T09:52:41;13.81;78.91
65836;SHT30;52595;51.608;7.216;2024-03-22T09:55:07;13.97;78.31
65836;SHT30;52595;51.608;7.216;2024-03-22T09:57:37;14.20;78.19
65836;SHT30;52595;51.608;7.216;2024-03-22T10:00:07;14.09;78.32
65836;SHT30;52595;51.608;7.216;2024-03-22T10:02:34;14.10;78.52
65836;SHT30;52595;51.608;7.216;2024-03-22T10:05:00;14.30;78.06
65836;SHT30;52595;51.608;7.216;2024-03-22T10:07:27;14.72;77.61
65836;SHT30;52595;51.608;7.216;2024-03-22T10:09:53;14.47;77.26
65836;SHT30;52595;51.608;7.216;2024-03-22T10:12:18;14.44;77.43
65836;SHT30;52595;51.608;7.216;2024-03-22T10:14:45;14.60;77.34
65836;SHT30;52595;51.608;7.216;2024-03-22T10:17:11;14.40;77.97
65836;SHT30;52595;51.608;7.216;2024-03-22T10:19:37;14.56;77.13
65836;SHT30;52595;51.608;7.216;2024-03-22T10:22:03;14.64;76.97
65836;SHT30;52595;51.608;7.216;2024-03-22T10:24:29;14.85;76.65
65836;SHT30;52595;51.608;7.216;2024-03-22T10:26:55;14.73;77.06
65836;SHT30;52595;51.608;7.216;2024-03-22T10:29:21;14.88;76.92
65836;SHT30;52595;51.608;7.216;2024-03-22T10:31:51;14.94;77.06
65836;SHT30;52595;51.608;7.216;2024-03-22T10:34:17;14.64;77.50
65836;SHT30;52595;51.608;7.216;2024-03-22T10:36:44;14.97;76.84
65836;SHT30;52595;51.608;7.216;2024-03-22T10:39:13;14.73;77.40
65836;SHT30;52595;51.608;7.216;2024-03-22T10:41:40;14.90;77.49
65836;SHT30;52595;51.608;7.216;2024-03-22T10:44:06;14.55;77.95
65836;SHT30;52595;51.608;7.216;2024-03-22T10:46:34;14.57;78.69
65836;SHT30;52595;51.608;7.216;2024-03-22T10:49:02;14.50;78.79
65836;SHT30;52595;51.608;7.216;2024-03-22T10:51:29;14.50;79.05
65836;SHT30;52595;51.608;7.216;2024-03-22T10:53:56;14.60;78.85
65836;SHT30;52595;51.608;7.216;2024-03-22T10:56:23;14.49;78.64
65836;SHT30;52595;51.608;7.216;2024-03-22T10:58:50;14.39;79.35
65836;SHT30;52595;51.608;7.216;2024-03-22T11:01:25;14.73;78.73
65836;SHT30;52595;51.608;7.216;2024-03-22T11:03:50;14.77;78.37
65836;SHT30;52595;51.608;7.216;2024-03-22T11:06:20;14.69;78.92
65836;SHT30;52595;51.608;7.216;2024-03-22T11:08:50;14.66;79.01
65836;SHT30;52595;51.608;7.216;2024-03-22T11:11:18;14.67;79.18
65836;SHT30;52595;51.608;7.216;2024-03-22T11:13:47;14.67;79.33
65836;SHT30;52595;51.608;7.216;2024-03-22T11:16:14;14.42;80.04
65836;SHT30;52595;51.608;7.216;2024-03-22T11:18:39;14.56;79.85
65836;SHT30;52595;51.608;7.216;2024-03-22T11:21:05;14.49;79.75
65836;SHT30;52595;51.608;7.216;2024-03-22T11:23:34;14.52;79.99
65836;SHT30;52595;51.608;7.216;2024-03-22T11:25:59;14.49;80.32
65836;SHT30;52595;51.608;7.216;2024-03-22T11:28:25;14.46;80.17
65836;SHT30;52595;51.608;7.216;2024-03-22T11:30:51;14.30;80.27
65836;SHT30;52595;51.608;7.216;2024-03-22T11:33:16;14.08;81.37
65836;SHT30;52595;51.608;7.216;2024-03-22T11:35:41;14.19;81.18
65836;SHT30;52595;51.608;7.216;2024-03-22T11:38:08;14.40;80.94
65836;SHT30;52595;51.608;7.216;2024-03-22T11:40:33;14.29;81.04
65836;SHT30;52595;51.608;7.216;2024-03-22T11:43:00;14.19;81.53
65836;SHT30;52595;51.608;7.216;2024-03-22T11:45:27;14.04;81.59
65836;SHT30;52595;51.608;7.216;2024-03-22T11:47:53;14.05;81.95
65836;SHT30;52595;51.608;7.216;2024-03-22T11:50:19;14.06;81.83
65836;SHT30;52595;51.608;7.216;2024-03-22T11:52:44;13.95;82.24
65836;SHT30;52595;51.608;7.216;2024-03-22T11:55:14;13.89;82.65
65836;SHT30;52595;51.608;7.216;2024-03-22T11:57:40;13.71;82.64
65836;SHT30;52595;51.608;7.216;2024-03-22T12:00:06;13.61;82.96
65836;SHT30;52595;51.608;7.216;2024-03-22T12:02:38;13.64;82.94
65836;SHT30;52595;51.608;7.216;2024-03-22T12:05:06;13.61;82.98
65836;SHT30;52595;51.608;7.216;2024-03-22T12:07:32;13.41;83.35
65836;SHT30;52595;51.608;7.216;2024-03-22T12:09:58;13.33;83.42
65836;SHT30;52595;51.608;7.216;2024-03-22T12:12:23;13.44;83.10
65836;SHT30;52595;51.608;7.216;2024-03-22T12:14:49;13.33;83.39
65836;SHT30;52595;51.608;7.216;2024-03-22T12:17:17;13.30;83.32
65836;SHT30;52595;51.608;7.216;2024-03-22T12:19:43;13.24;83.43
65836;SHT30;52595;51.608;7.216;2024-03-22T12:22:09;13.13;83.95
65836;SHT30;52595;51.608;7.216;2024-03-22T12:24:35;13.08;84.17
65836;SHT30;52595;51.608;7.216;2024-03-22T12:27:01;13.00;84.30
65836;SHT30;52595;51.608;7.216;2024-03-22T12:29:26;12.94;84.50
65836;SHT30;52595;51.608;7.216;2024-03-22T12:31:52;12.93;84.63
65836;SHT30;52595;51.608;7.216;2024-03-22T12:34:18;12.77;85.41
65836;SHT30;52595;51.608;7.216;2024-03-22T12:36:43;12.76;86.28
65836;SHT30;52595;51.608;7.216;2024-03-22T12:39:09;12.59;87.15
65836;SHT30;52595;51.608;7.216;2024-03-22T12:41:34;12.39;89.27
65836;SHT30;52595;51.608;7.216;2024-03-22T12:44:00;12.25;89.11
65836;SHT30;52595;51.608;7.216;2024-03-22T12:46:26;12.11;89.51
65836;SHT30;52595;51.608;7.216;2024-03-22T12:48:55;12.11;89.73
65836;SHT30;52595;51.608;7.216;2024-03-22T12:51:21;12.14;89.87
65836;SHT30;52595;51.608;7.216;2024-03-22T12:53:46;12.12;88.80
65836;SHT30;52595;51.608;7.216;2024-03-22T12:56:12;12.18;88.86
65836;SHT30;52595;51.608;7.216;2024-03-22T12:58:37;12.25;88.61
65836;SHT30;52595;51.608;7.216;2024-03-22T13:01:05;12.25;88.42
65836;SHT30;52595;51.608;7.216;2024-03-22T13:03:34;12.33;88.99
65836;SHT30;52595;51.608;7.216;2024-03-22T13:05:59;12.40;89.04
65836;SHT30;52595;51.608;7.216;2024-03-22T13:08:25;12.43;88.75
65836;SHT30;52595;51.608;7.216;2024-03-22T13:10:50;12.35;88.80
65836;SHT30;52595;51.608;7.216;2024-03-22T13:13:17;12.24;88.26
65836;SHT30;52595;51.608;7.216;2024-03-22T13:15:43;12.28;88.24
65836;SHT30;52595;51.608;7.216;2024-03-22T13:18:08;12.30;88.10
65836;SHT30;52595;51.608;7.216;2024-03-22T13:20:37;12.21;87.77
65836;SHT30;52595;51.608;7.216;2024-03-22T13:23:03;12.28;87.81
65836;SHT30;52595;51.608;7.216;2024-03-22T13:25:28;12.33;87.62
65836;SHT30;52595;51.608;7.216;2024-03-22T13:27:54;12.25;87.88
65836;SHT30;52595;51.608;7.216;2024-03-22T13:30:19;12.28;88.01
65836;SHT30;52595;51.608;7.216;2024-03-22T13:32:45;12.17;88.33
65836;SHT30;52595;51.608;7.216;2024-03-22T13:35:11;12.04;88.79
65836;SHT30;52595;51.608;7.216;2024-03-22T13:37:36;11.98;88.85
65836;SHT30;52595;51.608;7.216;2024-03-22T13:40:02;11.99;88.72
65836;SHT30;52595;51.608;7.216;2024-03-22T13:42:28;11.98;88.58
65836;SHT30;52595;51.608;7.216;2024-03-22T13:44:53;11.91;88.65
65836;SHT30;52595;51.608;7.216;2024-03-22T13:47:19;11.85;88.72
65836;SHT30;52595;51.608;7.216;2024-03-22T13:49:45;11.82;88.97
65836;SHT30;52595;51.608;7.216;2024-03-22T13:52:11;11.79;89.12
65836;SHT30;52595;51.608;7.216;2024-03-22T13:54:36;11.85;89.20
65836;SHT30;52595;51.608;7.216;2024-03-22T13:57:02;11.84;89.12
65836;SHT30;52595;51.608;7.216;2024-03-22T13:59:28;11.77;89.13
65836;SHT30;52595;51.608;7.216;2024-03-22T14:01:54;11.79;89.21
65836;SHT30;52595;51.608;7.216;2024-03-22T14:04:22;11.73;89.42
65836;SHT30;52595;51.608;7.216;2024-03-22T14:06:47;11.77;89.55
65836;SHT30;52595;51.608;7.216;2024-03-22T14:09:13;11.63;90.12
65836;SHT30;52595;51.608;7.216;2024-03-22T14:11:39;11.54;90.61
65836;SHT30;52595;51.608;7.216;2024-03-22T14:14:04;11.57;90.92
65836;SHT30;52595;51.608;7.216;2024-03-22T14:16:30;11.57;90.73
65836;SHT30;52595;51.608;7.216;2024-03-22T14:18:55;11.51;90.75
65836;SHT30;52595;51.608;7.216;2024-03-22T14:21:21;11.43;91.05
65836;SHT30;52595;51.608;7.216;2024-03-22T14:23:50;11.43;91.60
65836;SHT30;52595;51.608;7.216;2024-03-22T14:26:17;11.27;91.71
65836;SHT30;52595;51.608;7.216;2024-03-22T14:28:43;11.27;92.10
65836;SHT30;52595;51.608;7.216;2024-03-22T14:31:09;11.23;92.26
65836;SHT30;52595;51.608;7.216;2024-03-22T14:33:38;11.12;92.57
65836;SHT30;52595;51.608;7.216;2024-03-22T14:36:05;11.06;93.64
65836;SHT30;52595;51.608;7.216;2024-03-22T14:38:32;10.97;94.50
65836;SHT30;52595;51.608;7.216;2024-03-22T14:40:58;10.92;94.98
65836;SHT30;52595;51.608;7.216;2024-03-22T14:43:24;10.73;95.85
65836;SHT30;52595;51.608;7.216;2024-03-22T14:45:51;10.63;97.25
65836;SHT30;52595;51.608;7.216;2024-03-22T14:48:19;10.56;97.40
65836;SHT30;52595;51.608;7.216;2024-03-22T14:50:44;10.53;98.65
65836;SHT30;52595;51.608;7.216;2024-03-22T14:53:10;10.55;98.34
65836;SHT30;52595;51.608;7.216;2024-03-22T14:55:37;10.51;99.42
65836;SHT30;52595;51.608;7.216;2024-03-22T14:58:03;10.42;99.31
65836;SHT30;52595;51.608;7.216;2024-03-22T15:00:29;10.35;99.64
65836;SHT30;52595;51.608;7.216;2024-03-22T15:02:54;10.31;99.99
65836;SHT30;52595;51.608;7.216;2024-03-22T15:05:20;10.34;99.99
65836;SHT30;52595;51.608;7.216;2024-03-22T15:07:45;10.38;99.99
65836;SHT30;52595;51.608;7.216;2024-03-22T15:10:11;10.34;99.99
65836;SHT30;52595;51.608;7.216;2024-03-22T15:12:36;10.25;99.99
65836;SHT30;52595;51.608;7.216;2024-03-22T15:15:02;10.25;99.99
65836;SHT30;52595;51.608;7.216;2024-03-22T15:17:29;10.21;99.99
65836;SHT30;52595;51.608;7.216;2024-03-22T15:19:55;10.18;99.99
65836;SHT30;52595;51.608;7.216;2024-03-22T15:22:21;10.15;99.99